sensor_id;sensor_type;location;lat;lon;timestamp;temperature;humidity
67763;DHT22;54566;52.022;5.582;2024-01-07T00:00:40;1.80;99.90
67763;DHT22;54566;52.022;5.582;2024-01-07T00:03:09;1.80;99.90
67763;DHT22;54566;52.022;5.582;2024-01-07T00:05:48;1.80;99.90
67763;DHT22;54566;52.022;5.582;2024-01-07T00:08:18;1.80;99.90
67763;DHT22;54566;52.022;5.582;2024-01-07T00:10:49;1.80;99.90
67763;DHT22;54566;52.022;5.582;2024-01-07T00:13:16;1.80;99.90
67763;DHT22;54566;52.022;5.582;2024-01-07T00:15:49;1.80;99.90
67763;DHT22;54566;52.022;5.582;2024-01-07T00:18:21;1.80;99.90
67763;DHT22;54566;52.022;5.582;2024-01-07T00:20:50;1.80;99.90
67763;DHT22;54566;52.022;5.582;2024-01-07T00:23:20;1.70;99.90
67763;DHT22;54566;52.022;5.582;2024-01-07T00:25:47;1.70;99.90
67763;DHT22;54566;52.022;5.582;2024-01-07T00:28:18;1.70;99.90
67763;DHT22;54566;52.022;5.582;2024-01-07T00:31:18;1.70;99.90
67763;DHT22;54566;52.022;5.582;2024-01-07T00:33:49;1.70;99.90
67763;DHT22;54566;52.022;5.582;2024-01-07T00:36:28;1.70;99.90
67763;DHT22;54566;52.022;5.582;2024-01-07T00:39:02;1.70;99.90
67763;DHT22;54566;52.022;5.582;2024-01-07T00:41:39;1.70;99.90
67763;DHT22;54566;52.022;5.582;2024-01-07T00:44:19;1.70;99.90
67763;DHT22;54566;52.022;5.582;2024-01-07T00:46:51;1.70;99.90
67763;DHT22;54566;52.022;5.582;2024-01-07T00:49:22;1.80;99.90
67763;DHT22;54566;52.022;5.582;2024-01-07T00:52:00;1.80;99.90
67763;DHT22;54566;52.022;5.582;2024-01-07T00:54:42;1.70;99.90
67763;DHT22;54566;52.022;5.582;2024-01-07T01:00:38;1.70;99.90
67763;DHT22;54566;52.022;5.582;2024-01-07T01:03:09;1.70;99.90
67763;DHT22;54566;52.022;5.582;2024-01-07T01:05:40;1.70;99.90
67763;DHT22;54566;52.022;5.582;2024-01-07T01:08:09;1.70;99.90
67763;DHT22;54566;52.022;5.582;2024-01-07T01:10:34;1.70;99.90
67763;DHT22;54566;52.022;5.582;2024-01-07T01:13:08;1.70;99.90
67763;DHT22;54566;52.022;5.582;2024-01-07T01:15:39;1.60;99.90
67763;DHT22;54566;52.022;5.582;2024-01-07T01:18:35;1.70;99.90
67763;DHT22;54566;52.022;5.582;2024-01-07T01:21:07;1.60;99.90
67763;DHT22;54566;52.022;5.582;2024-01-07T01:23:33;1.70;99.90
67763;DHT22;54566;52.022;5.582;2024-01-07T01:26:02;1.60;99.90
67763;DHT22;54566;52.022;5.582;2024-01-07T01:28:30;1.60;99.90
67763;DHT22;54566;52.022;5.582;2024-01-07T01:31:14;1.60;99.90
67763;DHT22;54566;52.022;5.582;2024-01-07T01:33:48;1.60;99.90
67763;DHT22;54566;52.022;5.582;2024-01-07T01:36:17;1.60;99.90
67763;DHT22;54566;52.022;5.582;2024-01-07T01:38:44;1.70;99.90
67763;DHT22;54566;52.022;5.582;2024-01-07T01:41:11;1.60;99.90
67763;DHT22;54566;52.022;5.582;2024-01-07T01:43:41;1.60;99.90
67763;DHT22;54566;52.022;5.582;2024-01-07T01:46:08;1.60;99.90
67763;DHT22;54566;52.022;5.582;2024-01-07T01:48:37;1.60;99.90
67763;DHT22;54566;52.022;5.582;2024-01-07T01:51:03;1.70;99.90
67763;DHT22;54566;52.022;5.582;2024-01-07T01:53:29;1.70;99.90
67763;DHT22;54566;52.022;5.582;2024-01-07T01:55:58;1.70;99.90
67763;DHT22;54566;52.022;5.582;2024-01-07T01:58:31;1.70;99.90
67763;DHT22;54566;52.022;5.582;2024-01-07T02:01:04;1.70;99.90
67763;DHT22;54566;52.022;5.582;2024-01-07T02:03:34;1.70;99.90
67763;DHT22;54566;52.022;5.582;2024-01-07T02:06:04;1.70;99.90
67763;DHT22;54566;52.022;5.582;2024-01-07T02:08:43;1.70;99.90
67763;DHT22;54566;52.022;5.582;2024-01-07T02:11:21;1.70;99.90
67763;DHT22;54566;52.022;5.582;2024-01-07T02:13:50;1.70;99.90
67763;DHT22;54566;52.022;5.582;2024-01-07T02:16:17;1.70;99.90
67763;DHT22;54566;52.022;5.582;2024-01-07T02:18:52;1.70;99.90
67763;DHT22;54566;52.022;5.582;2024-01-07T02:21:45;1.70;99.90
67763;DHT22;54566;52.022;5.582;2024-01-07T02:24:34;1.70;99.90
67763;DHT22;54566;52.022;5.582;2024-01-07T02:27:13;1.60;99.90
67763;DHT22;54566;52.022;5.582;2024-01-07T02:29:39;1.70;99.90
67763;DHT22;54566;52.022;5.582;2024-01-07T02:32:09;1.70;99.90
67763;DHT22;54566;52.022;5.582;2024-01-07T02:34:39;1.70;99.90
67763;DHT22;54566;52.022;5.582;2024-01-07T02:37:18;1.70;99.90
67763;DHT22;54566;52.022;5.582;2024-01-07T02:39:45;1.70;99.90
67763;DHT22;54566;52.022;5.582;2024-01-07T02:42:26;1.60;99.90
67763;DHT22;54566;52.022;5.582;2024-01-07T02:45:17;1.60;99.90
67763;DHT22;54566;52.022;5.582;2024-01-07T02:47:46;1.60;99.90
67763;DHT22;54566;52.022;5.582;2024-01-07T02:50:19;1.60;99.90
67763;DHT22;54566;52.022;5.582;2024-01-07T02:52:50;1.60;99.90
67763;DHT22;54566;52.022;5.582;2024-01-07T02:55:20;1.60;99.90
67763;DHT22;54566;52.022;5.582;2024-01-07T02:57:53;1.60;99.90
67763;DHT22;54566;52.022;5.582;2024-01-07T03:03:10;1.60;99.90
67763;DHT22;54566;52.022;5.582;2024-01-07T03:05:40;1.60;99.90
67763;DHT22;54566;52.022;5.582;2024-01-07T03:08:07;1.60;99.90
67763;DHT22;54566;52.022;5.582;2024-01-07T03:10:40;1.50;99.90
67763;DHT22;54566;52.022;5.582;2024-01-07T03:13:16;1.50;99.90
67763;DHT22;54566;52.022;5.582;2024-01-07T03:19:10;1.60;99.90
67763;DHT22;54566;52.022;5.582;2024-01-07T03:21:41;1.50;99.90
67763;DHT22;54566;52.022;5.582;2024-01-07T03:24:25;1.50;99.90
67763;DHT22;54566;52.022;5.582;2024-01-07T03:27:01;1.50;99.90
67763;DHT22;54566;52.022;5.582;2024-01-07T03:29:47;1.50;99.90
67763;DHT22;54566;52.022;5.582;2024-01-07T03:32:15;1.50;99.90
67763;DHT22;54566;52.022;5.582;2024-01-07T03:35:02;1.50;99.90
67763;DHT22;54566;52.022;5.582;2024-01-07T03:37:28;1.50;99.90
67763;DHT22;54566;52.022;5.582;2024-01-07T03:43:07;1.50;99.90
67763;DHT22;54566;52.022;5.582;2024-01-07T03:45:33;1.50;99.90
67763;DHT22;54566;52.022;5.582;2024-01-07T03:48:02;1.50;99.90
67763;DHT22;54566;52.022;5.582;2024-01-07T03:50:27;1.50;99.90
67763;DHT22;54566;52.022;5.582;2024-01-07T03:52:57;1.50;99.90
67763;DHT22;54566;52.022;5.582;2024-01-07T03:55:26;1.50;99.90
67763;DHT22;54566;52.022;5.582;2024-01-07T03:57:52;1.50;99.90
67763;DHT22;54566;52.022;5.582;2024-01-07T04:00:18;1.50;99.90
67763;DHT22;54566;52.022;5.582;2024-01-07T04:02:44;1.50;99.90
67763;DHT22;54566;52.022;5.582;2024-01-07T04:05:10;1.50;99.90
67763;DHT22;54566;52.022;5.582;2024-01-07T04:07:38;1.50;99.90
67763;DHT22;54566;52.022;5.582;2024-01-07T04:10:06;1.50;99.90
67763;DHT22;54566;52.022;5.582;2024-01-07T04:35:53;1.40;99.90
67763;DHT22;54566;52.022;5.582;2024-01-07T04:38:23;1.40;99.90
67763;DHT22;54566;52.022;5.582;2024-01-07T04:40:50;1.40;99.90
67763;DHT22;54566;52.022;5.582;2024-01-07T04:43:17;1.40;99.90
67763;DHT22;54566;52.022;5.582;2024-01-07T04:45:43;1.40;99.90
67763;DHT22;54566;52.022;5.582;2024-01-07T04:48:11;1.40;99.90
67763;DHT22;54566;52.022;5.582;2024-01-07T04:50:37;1.40;99.90
67763;DHT22;54566;52.022;5.582;2024-01-07T04:53:04;1.40;99.90
67763;DHT22;54566;52.022;5.582;2024-01-07T04:55:40;1.40;99.90
67763;DHT22;54566;52.022;5.582;2024-01-07T04:58:05;1.40;99.90
67763;DHT22;54566;52.022;5.582;2024-01-07T05:00:33;1.40;99.90
67763;DHT22;54566;52.022;5.582;2024-01-07T05:02:59;1.40;99.90
67763;DHT22;54566;52.022;5.582;2024-01-07T05:05:25;1.40;99.90
67763;DHT22;54566;52.022;5.582;2024-01-07T05:07:51;1.40;99.90
67763;DHT22;54566;52.022;5.582;2024-01-07T05:10:18;1.40;99.90
67763;DHT22;54566;52.022;5.582;2024-01-07T05:12:44;1.40;99.90
67763;DHT22;54566;52.022;5.582;2024-01-07T05:15:10;1.40;99.90
67763;DHT22;54566;52.022;5.582;2024-01-07T05:17:40;1.30;99.90
67763;DHT22;54566;52.022;5.582;2024-01-07T05:20:10;1.30;99.90
67763;DHT22;54566;52.022;5.582;2024-01-07T05:22:36;1.30;99.90
67763;DHT22;54566;52.022;5.582;2024-01-07T05:25:03;1.30;99.90
67763;DHT22;54566;52.022;5.582;2024-01-07T05:27:31;1.30;99.90
67763;DHT22;54566;52.022;5.582;2024-01-07T05:29:57;1.40;99.90
67763;DHT22;54566;52.022;5.582;2024-01-07T05:32:23;1.40;99.90
67763;DHT22;54566;52.022;5.582;2024-01-07T05:34:49;1.30;99.90
67763;DHT22;54566;52.022;5.582;2024-01-07T05:37:15;1.30;99.90
67763;DHT22;54566;52.022;5.582;2024-01-07T05:39:41;1.30;99.90
67763;DHT22;54566;52.022;5.582;2024-01-07T05:42:07;1.30;99.90
67763;DHT22;54566;52.022;5.582;2024-01-07T05:44:33;1.30;99.90
67763;DHT22;54566;52.022;5.582;2024-01-07T05:46:59;1.30;99.90
67763;DHT22;54566;52.022;5.582;2024-01-07T05:49:25;1.30;99.90
67763;DHT22;54566;52.022;5.582;2024-01-07T05:51:51;1.30;99.90
67763;DHT22;54566;52.022;5.582;2024-01-07T05:54:16;1.30;99.90
67763;DHT22;54566;52.022;5.582;2024-01-07T05:56:42;1.30;99.90
67763;DHT22;54566;52.022;5.582;2024-01-07T05:59:08;1.20;99.90
67763;DHT22;54566;52.022;5.582;2024-01-07T06:01:34;1.30;99.90
67763;DHT22;54566;52.022;5.582;2024-01-07T06:04:00;1.30;99.90
67763;DHT22;54566;52.022;5.582;2024-01-07T06:06:26;1.30;99.90
67763;DHT22;54566;52.022;5.582;2024-01-07T06:08:52;1.30;99.90
67763;DHT22;54566;52.022;5.582;2024-01-07T06:11:18;1.30;99.90
67763;DHT22;54566;52.022;5.582;2024-01-07T06:13:47;1.30;99.90
67763;DHT22;54566;52.022;5.582;2024-01-07T06:16:15;1.30;99.90
67763;DHT22;54566;52.022;5.582;2024-01-07T06:18:41;1.30;99.90
67763;DHT22;54566;52.022;5.582;2024-01-07T06:21:07;1.30;99.90
67763;DHT22;54566;52.022;5.582;2024-01-07T06:23:33;1.30;99.90
67763;DHT22;54566;52.022;5.582;2024-01-07T06:25:59;1.30;99.90
67763;DHT22;54566;52.022;5.582;2024-01-07T06:28:24;1.30;99.90
67763;DHT22;54566;52.022;5.582;2024-01-07T06:30:50;1.30;99.90
67763;DHT22;54566;52.022;5.582;2024-01-07T06:33:16;1.20;99.90
67763;DHT22;54566;52.022;5.582;2024-01-07T06:35:42;1.20;99.90
67763;DHT22;54566;52.022;5.582;2024-01-07T06:38:08;1.30;99.90
67763;DHT22;54566;52.022;5.582;2024-01-07T06:40:37;1.30;99.90
67763;DHT22;54566;52.022;5.582;2024-01-07T06:43:06;1.30;99.90
67763;DHT22;54566;52.022;5.582;2024-01-07T06:45:32;1.30;99.90
67763;DHT22;54566;52.022;5.582;2024-01-07T06:47:58;1.20;99.90
67763;DHT22;54566;52.022;5.582;2024-01-07T06:50:26;1.30;99.90
67763;DHT22;54566;52.022;5.582;2024-01-07T06:52:52;1.20;99.90
67763;DHT22;54566;52.022;5.582;2024-01-07T06:55:17;1.20;99.90
67763;DHT22;54566;52.022;5.582;2024-01-07T06:57:43;1.20;99.90
67763;DHT22;54566;52.022;5.582;2024-01-07T07:00:10;1.20;99.90
67763;DHT22;54566;52.022;5.582;2024-01-07T07:02:38;1.20;99.90
67763;DHT22;54566;52.022;5.582;2024-01-07T07:05:04;1.20;99.90
67763;DHT22;54566;52.022;5.582;2024-01-07T07:07:30;1.30;99.90
67763;DHT22;54566;52.022;5.582;2024-01-07T07:09:56;1.20;99.90
67763;DHT22;54566;52.022;5.582;2024-01-07T07:12:24;1.20;99.90
67763;DHT22;54566;52.022;5.582;2024-01-07T07:14:49;1.20;99.90
67763;DHT22;54566;52.022;5.582;2024-01-07T07:17:21;1.20;99.90
67763;DHT22;54566;52.022;5.582;2024-01-07T07:19:52;1.20;99.90
67763;DHT22;54566;52.022;5.582;2024-01-07T07:22:24;1.20;99.90
67763;DHT22;54566;52.022;5.582;2024-01-07T07:24:59;1.10;99.90
67763;DHT22;54566;52.022;5.582;2024-01-07T07:27:32;1.10;99.90
67763;DHT22;54566;52.022;5.582;2024-01-07T07:30:13;1.10;99.90
67763;DHT22;54566;52.022;5.582;2024-01-07T07:32:40;1.10;99.90
67763;DHT22;54566;52.022;5.582;2024-01-07T07:42:26;1.10;99.90
67763;DHT22;54566;52.022;5.582;2024-01-07T07:51:18;1.10;99.90
67763;DHT22;54566;52.022;5.582;2024-01-07T07:53:53;1.10;99.90
67763;DHT22;54566;52.022;5.582;2024-01-07T09:06:48;0.70;99.90
67763;DHT22;54566;52.022;5.582;2024-01-07T09:09:14;0.80;99.90
67763;DHT22;54566;52.022;5.582;2024-01-07T09:11:48;0.70;99.90
67763;DHT22;54566;52.022;5.582;2024-01-07T09:14:31;0.70;99.90
67763;DHT22;54566;52.022;5.582;2024-01-07T09:17:11;0.80;99.90
67763;DHT22;54566;52.022;5.582;2024-01-07T09:19:42;0.80;99.90
67763;DHT22;54566;52.022;5.582;2024-01-07T09:22:31;0.80;99.90
67763;DHT22;54566;52.022;5.582;2024-01-07T09:28:45;0.80;99.90
67763;DHT22;54566;52.022;5.582;2024-01-07T09:31:21;0.80;99.90
67763;DHT22;54566;52.022;5.582;2024-01-07T09:34:14;0.80;99.90
67763;DHT22;54566;52.022;5.582;2024-01-07T09:37:02;0.80;99.90
67763;DHT22;54566;52.022;5.582;2024-01-07T09:39:43;0.80;99.90
67763;DHT22;54566;52.022;5.582;2024-01-07T09:42:13;0.80;99.90
67763;DHT22;54566;52.022;5.582;2024-01-07T09:44:41;0.80;99.90
67763;DHT22;54566;52.022;5.582;2024-01-07T09:47:18;0.80;99.90
67763;DHT22;54566;52.022;5.582;2024-01-07T09:49:46;0.80;99.90
67763;DHT22;54566;52.022;5.582;2024-01-07T09:52:12;0.80;99.90
67763;DHT22;54566;52.022;5.582;2024-01-07T09:54:39;0.80;99.90
67763;DHT22;54566;52.022;5.582;2024-01-07T09:57:08;0.80;99.90
67763;DHT22;54566;52.022;5.582;2024-01-07T09:59:35;0.80;99.90
67763;DHT22;54566;52.022;5.582;2024-01-07T10:02:16;0.80;99.90
67763;DHT22;54566;52.022;5.582;2024-01-07T10:04:48;0.80;99.90
67763;DHT22;54566;52.022;5.582;2024-01-07T10:07:24;0.80;99.90
67763;DHT22;54566;52.022;5.582;2024-01-07T10:10:02;0.80;99.90
67763;DHT22;54566;52.022;5.582;2024-01-07T10:12:35;0.80;99.90
67763;DHT22;54566;52.022;5.582;2024-01-07T10:15:04;0.80;99.90
67763;DHT22;54566;52.022;5.582;2024-01-07T10:17:33;0.80;99.90
67763;DHT22;54566;52.022;5.582;2024-01-07T10:20:05;0.80;99.90
67763;DHT22;54566;52.022;5.582;2024-01-07T10:22:52;0.90;99.90
67763;DHT22;54566;52.022;5.582;2024-01-07T10:25:18;0.90;99.90
67763;DHT22;54566;52.022;5.582;2024-01-07T10:27:44;1.00;99.90
67763;DHT22;54566;52.022;5.582;2024-01-07T10:30:16;1.00;99.90
67763;DHT22;54566;52.022;5.582;2024-01-07T10:32:42;1.10;99.90
67763;DHT22;54566;52.022;5.582;2024-01-07T10:35:12;1.10;99.90
67763;DHT22;54566;52.022;5.582;2024-01-07T10:37:42;1.20;99.90
67763;DHT22;54566;52.022;5.582;2024-01-07T10:40:11;1.20;99.90
67763;DHT22;54566;52.022;5.582;2024-01-07T10:42:43;1.10;99.90
67763;DHT22;54566;52.022;5.582;2024-01-07T10:45:12;1.10;99.90
67763;DHT22;54566;52.022;5.582;2024-01-07T10:47:40;1.00;99.90
67763;DHT22;54566;52.022;5.582;2024-01-07T10:50:15;1.00;99.90
67763;DHT22;54566;52.022;5.582;2024-01-07T10:52:49;1.00;99.90
67763;DHT22;54566;52.022;5.582;2024-01-07T10:55:18;1.00;99.90
67763;DHT22;54566;52.022;5.582;2024-01-07T11:01:31;1.00;99.90
67763;DHT22;54566;52.022;5.582;2024-01-07T12:16:00;1.70;99.90
67763;DHT22;54566;52.022;5.582;2024-01-07T12:18:30;1.60;99.50
67763;DHT22;54566;52.022;5.582;2024-01-07T12:20:58;1.70;99.90
67763;DHT22;54566;52.022;5.582;2024-01-07T12:23:25;1.60;99.90
67763;DHT22;54566;52.022;5.582;2024-01-07T12:25:54;1.70;99.90
67763;DHT22;54566;52.022;5.582;2024-01-07T12:28:30;1.70;99.90
67763;DHT22;54566;52.022;5.582;2024-01-07T12:31:04;1.80;99.00
67763;DHT22;54566;52.022;5.582;2024-01-07T12:33:40;1.80;99.90
67763;DHT22;54566;52.022;5.582;2024-01-07T12:36:30;1.80;99.90
67763;DHT22;54566;52.022;5.582;2024-01-07T12:38:55;1.80;99.90
67763;DHT22;54566;52.022;5.582;2024-01-07T12:41:23;1.80;99.90
67763;DHT22;54566;52.022;5.582;2024-01-07T12:43:53;1.80;99.90
67763;DHT22;54566;52.022;5.582;2024-01-07T12:46:29;1.90;99.90
67763;DHT22;54566;52.022;5.582;2024-01-07T12:48:57;1.90;99.90
67763;DHT22;54566;52.022;5.582;2024-01-07T12:51:26;1.80;99.90
67763;DHT22;54566;52.022;5.582;2024-01-07T12:54:01;1.70;99.90
67763;DHT22;54566;52.022;5.582;2024-01-07T12:56:29;1.70;99.90
67763;DHT22;54566;52.022;5.582;2024-01-07T12:58:54;1.70;99.90
67763;DHT22;54566;52.022;5.582;2024-01-07T13:01:20;1.70;99.90
67763;DHT22;54566;52.022;5.582;2024-01-07T13:03:46;1.70;99.90
67763;DHT22;54566;52.022;5.582;2024-01-07T13:06:14;1.70;99.90
67763;DHT22;54566;52.022;5.582;2024-01-07T13:08:42;1.70;99.90
67763;DHT22;54566;52.022;5.582;2024-01-07T13:11:08;1.60;99.90
67763;DHT22;54566;52.022;5.582;2024-01-07T13:13:39;1.60;99.90
67763;DHT22;54566;52.022;5.582;2024-01-07T13:16:08;1.60;99.90
67763;DHT22;54566;52.022;5.582;2024-01-07T13:18:34;1.60;98.70
67763;DHT22;54566;52.022;5.582;2024-01-07T13:21:06;1.70;96.20
67763;DHT22;54566;52.022;5.582;2024-01-07T13:23:34;1.80;99.90
67763;DHT22;54566;52.022;5.582;2024-01-07T13:26:00;1.90;99.90
67763;DHT22;54566;52.022;5.582;2024-01-07T13:28:35;2.00;99.90
67763;DHT22;54566;52.022;5.582;2024-01-07T13:31:03;2.00;99.50
67763;DHT22;54566;52.022;5.582;2024-01-07T13:33:29;2.10;99.90
67763;DHT22;54566;52.022;5.582;2024-01-07T13:36:03;2.20;99.90
67763;DHT22;54566;52.022;5.582;2024-01-07T13:38:34;2.20;99.90
67763;DHT22;54566;52.022;5.582;2024-01-07T13:41:00;2.10;99.90
67763;DHT22;54566;52.022;5.582;2024-01-07T13:43:29;2.20;99.90
67763;DHT22;54566;52.022;5.582;2024-01-07T13:46:00;2.10;99.90
67763;DHT22;54566;52.022;5.582;2024-01-07T13:48:35;2.10;99.90
67763;DHT22;54566;52.022;5.582;2024-01-07T13:51:18;1.90;99.90
67763;DHT22;54566;52.022;5.582;2024-01-07T13:53:44;1.90;99.90
67763;DHT22;54566;52.022;5.582;2024-01-07T13:56:13;1.90;99.90
67763;DHT22;54566;52.022;5.582;2024-01-07T13:58:39;1.90;99.90
67763;DHT22;54566;52.022;5.582;2024-01-07T14:01:05;1.90;99.90
67763;DHT22;54566;52.022;5.582;2024-01-07T14:03:34;1.80;99.90
67763;DHT22;54566;52.022;5.582;2024-01-07T14:06:05;1.80;99.90
67763;DHT22;54566;52.022;5.582;2024-01-07T14:08:34;1.80;99.90
67763;DHT22;54566;52.022;5.582;2024-01-07T14:11:03;1.70;99.90
67763;DHT22;54566;52.022;5.582;2024-01-07T14:13:29;1.80;99.90
67763;DHT22;54566;52.022;5.582;2024-01-07T14:15:55;1.80;99.90
67763;DHT22;54566;52.022;5.582;2024-01-07T14:18:21;1.80;99.90
67763;DHT22;54566;52.022;5.582;2024-01-07T14:20:57;1.80;99.90
67763;DHT22;54566;52.022;5.582;2024-01-07T14:23:22;1.70;99.90
67763;DHT22;54566;52.022;5.582;2024-01-07T14:26:06;1.70;99.90
67763;DHT22;54566;52.022;5.582;2024-01-07T14:28:34;1.70;96.40
67763;DHT22;54566;52.022;5.582;2024-01-07T14:31:10;1.60;99.60
67763;DHT22;54566;52.022;5.582;2024-01-07T14:33:36;1.60;99.90
67763;DHT22;54566;52.022;5.582;2024-01-07T14:36:02;1.60;99.90
67763;DHT22;54566;52.022;5.582;2024-01-07T14:38:45;1.50;99.90
67763;DHT22;54566;52.022;5.582;2024-01-07T14:41:14;1.50;99.90
67763;DHT22;54566;52.022;5.582;2024-01-07T14:44:15;1.50;99.90
67763;DHT22;54566;52.022;5.582;2024-01-07T14:46:57;1.50;98.50
67763;DHT22;54566;52.022;5.582;2024-01-07T15:10:19;1.20;99.90
67763;DHT22;54566;52.022;5.582;2024-01-07T15:12:45;1.10;99.90
67763;DHT22;54566;52.022;5.582;2024-01-07T15:15:11;1.10;99.90
67763;DHT22;54566;52.022;5.582;2024-01-07T15:17:37;1.00;99.90
67763;DHT22;54566;52.022;5.582;2024-01-07T15:20:09;1.00;99.90
67763;DHT22;54566;52.022;5.582;2024-01-07T15:22:34;1.00;99.90
67763;DHT22;54566;52.022;5.582;2024-01-07T15:25:01;0.90;99.90
67763;DHT22;54566;52.022;5.582;2024-01-07T15:27:27;0.90;99.90
67763;DHT22;54566;52.022;5.582;2024-01-07T15:29:55;0.80;99.90
67763;DHT22;54566;52.022;5.582;2024-01-07T15:32:23;0.80;99.90
67763;DHT22;54566;52.022;5.582;2024-01-07T15:34:51;0.80;99.90
67763;DHT22;54566;52.022;5.582;2024-01-07T15:37:17;0.70;99.90
67763;DHT22;54566;52.022;5.582;2024-01-07T15:39:43;0.70;99.90
67763;DHT22;54566;52.022;5.582;2024-01-07T15:42:09;0.70;99.90
67763;DHT22;54566;52.022;5.582;2024-01-07T15:44:35;0.70;99.90
67763;DHT22;54566;52.022;5.582;2024-01-07T15:47:03;0.60;99.90
67763;DHT22;54566;52.022;5.582;2024-01-07T15:49:34;0.60;99.90
67763;DHT22;54566;52.022;5.582;2024-01-07T15:52:02;0.60;99.90
67763;DHT22;54566;52.022;5.582;2024-01-07T15:54:38;0.60;99.90
67763;DHT22;54566;52.022;5.582;2024-01-07T15:57:03;0.50;99.90
67763;DHT22;54566;52.022;5.582;2024-01-07T15:59:40;0.40;99.90
67763;DHT22;54566;52.022;5.582;2024-01-07T16:02:06;0.50;99.90
67763;DHT22;54566;52.022;5.582;2024-01-07T16:04:32;0.40;99.90
67763;DHT22;54566;52.022;5.582;2024-01-07T16:06:58;0.40;99.90
67763;DHT22;54566;52.022;5.582;2024-01-07T16:09:24;0.30;99.90
67763;DHT22;54566;52.022;5.582;2024-01-07T16:11:56;0.30;99.90
67763;DHT22;54566;52.022;5.582;2024-01-07T16:14:28;0.30;99.90
67763;DHT22;54566;52.022;5.582;2024-01-07T16:17:00;0.30;99.90
67763;DHT22;54566;52.022;5.582;2024-01-07T16:19:29;0.30;99.90
67763;DHT22;54566;52.022;5.582;2024-01-07T16:21:55;0.20;99.90
67763;DHT22;54566;52.022;5.582;2024-01-07T16:24:23;0.20;99.90
67763;DHT22;54566;52.022;5.582;2024-01-07T16:26:54;0.20;99.90
67763;DHT22;54566;52.022;5.582;2024-01-07T16:29:41;0.20;99.90
67763;DHT22;54566;52.022;5.582;2024-01-07T16:32:31;0.10;99.90
67763;DHT22;54566;52.022;5.582;2024-01-07T16:35:04;0.10;99.90
67763;DHT22;54566;52.022;5.582;2024-01-07T16:37:30;0.10;99.90
67763;DHT22;54566;52.022;5.582;2024-01-07T16:40:01;0.10;99.90
67763;DHT22;54566;52.022;5.582;2024-01-07T16:42:32;0.10;99.90
67763;DHT22;54566;52.022;5.582;2024-01-07T16:45:00;0.10;99.90
67763;DHT22;54566;52.022;5.582;2024-01-07T16:47:26;0.70;99.90
67763;DHT22;54566;52.022;5.582;2024-01-07T16:49:53;1.40;99.90
67763;DHT22;54566;52.022;5.582;2024-01-07T16:52:18;1.30;99.90
67763;DHT22;54566;52.022;5.582;2024-01-07T16:54:44;0.90;99.90
67763;DHT22;54566;52.022;5.582;2024-01-07T16:57:12;0.70;99.90
67763;DHT22;54566;52.022;5.582;2024-01-07T16:59:38;0.60;99.90
67763;DHT22;54566;52.022;5.582;2024-01-07T17:02:05;0.90;99.90
67763;DHT22;54566;52.022;5.582;2024-01-07T17:04:31;0.70;99.90
67763;DHT22;54566;52.022;5.582;2024-01-07T17:06:58;0.40;99.90
67763;DHT22;54566;52.022;5.582;2024-01-07T17:09:23;0.30;99.90
67763;DHT22;54566;52.022;5.582;2024-01-07T17:11:49;0.20;99.90
67763;DHT22;54566;52.022;5.582;2024-01-07T17:14:15;0.10;99.90
67763;DHT22;54566;52.022;5.582;2024-01-07T17:16:41;0.10;99.90
67763;DHT22;54566;52.022;5.582;2024-01-07T17:19:07;0.10;99.90
67763;DHT22;54566;52.022;5.582;2024-01-07T17:21:35;0.10;99.90
67763;DHT22;54566;52.022;5.582;2024-01-07T17:24:01;0.00;99.90
67763;DHT22;54566;52.022;5.582;2024-01-07T17:26:27;0.00;99.90
67763;DHT22;54566;52.022;5.582;2024-01-07T17:28:55;0.10;99.90
67763;DHT22;54566;52.022;5.582;2024-01-07T17:31:21;0.00;99.90
67763;DHT22;54566;52.022;5.582;2024-01-07T17:33:50;0.10;99.90
67763;DHT22;54566;52.022;5.582;2024-01-07T17:36:18;0.00;99.90
67763;DHT22;54566;52.022;5.582;2024-01-07T17:38:47;0.00;99.90
67763;DHT22;54566;52.022;5.582;2024-01-07T17:51:57;-0.30;99.90
67763;DHT22;54566;52.022;5.582;2024-01-07T17:54:25;-0.40;99.90
67763;DHT22;54566;52.022;5.582;2024-01-07T17:56:53;-0.40;99.90
67763;DHT22;54566;52.022;5.582;2024-01-07T17:59:19;-0.50;99.90
67763;DHT22;54566;52.022;5.582;2024-01-07T18:01:55;-0.50;99.90
67763;DHT22;54566;52.022;5.582;2024-01-07T18:04:24;-0.50;99.90
67763;DHT22;54566;52.022;5.582;2024-01-07T18:06:57;-0.50;99.90
67763;DHT22;54566;52.022;5.582;2024-01-07T18:09:24;-0.50;99.90
67763;DHT22;54566;52.022;5.582;2024-01-07T18:11:50;-0.50;99.90
67763;DHT22;54566;52.022;5.582;2024-01-07T18:14:19;-0.50;99.90
67763;DHT22;54566;52.022;5.582;2024-01-07T18:16:46;-0.50;99.90
67763;DHT22;54566;52.022;5.582;2024-01-07T18:19:19;-0.60;99.90
67763;DHT22;54566;52.022;5.582;2024-01-07T18:24:32;-0.60;99.90
67763;DHT22;54566;52.022;5.582;2024-01-07T18:27:10;-0.60;99.90
67763;DHT22;54566;52.022;5.582;2024-01-07T18:29:46;-0.60;99.90
67763;DHT22;54566;52.022;5.582;2024-01-07T18:32:20;-0.60;99.90
67763;DHT22;54566;52.022;5.582;2024-01-07T18:34:46;-0.60;99.90
67763;DHT22;54566;52.022;5.582;2024-01-07T18:37:18;-0.60;99.90
67763;DHT22;54566;52.022;5.582;2024-01-07T18:39:50;-0.60;99.90
67763;DHT22;54566;52.022;5.582;2024-01-07T18:42:50;-0.70;99.90
67763;DHT22;54566;52.022;5.582;2024-01-07T19:09:44;-0.80;99.90
67763;DHT22;54566;52.022;5.582;2024-01-07T19:39:47;-0.90;99.90
67763;DHT22;54566;52.022;5.582;2024-01-07T19:42:39;-1.00;99.90
67763;DHT22;54566;52.022;5.582;2024-01-07T19:45:33;-1.00;99.90
67763;DHT22;54566;52.022;5.582;2024-01-07T19:48:46;-1.00;99.90
67763;DHT22;54566;52.022;5.582;2024-01-07T19:55:33;-1.00;99.90
67763;DHT22;54566;52.022;5.582;2024-01-07T20:01:23;-1.10;99.90
67763;DHT22;54566;52.022;5.582;2024-01-07T20:04:18;-1.10;99.90
67763;DHT22;54566;52.022;5.582;2024-01-07T20:07:22;-1.10;99.90
67763;DHT22;54566;52.022;5.582;2024-01-07T20:20:43;-1.20;99.90
67763;DHT22;54566;52.022;5.582;2024-01-07T20:23:47;-1.20;99.90
67763;DHT22;54566;52.022;5.582;2024-01-07T20:26:30;-1.30;99.90
67763;DHT22;54566;52.022;5.582;2024-01-07T20:29:11;-1.30;99.90
67763;DHT22;54566;52.022;5.582;2024-01-07T20:32:41;-1.30;99.90
67763;DHT22;54566;52.022;5.582;2024-01-07T20:35:39;-1.30;99.90
67763;DHT22;54566;52.022;5.582;2024-01-07T20:38:12;-1.30;99.90
67763;DHT22;54566;52.022;5.582;2024-01-07T20:44:57;-1.30;99.90
67763;DHT22;54566;52.022;5.582;2024-01-07T20:47:31;-1.30;99.90
67763;DHT22;54566;52.022;5.582;2024-01-07T20:53:23;-1.40;99.90
67763;DHT22;54566;52.022;5.582;2024-01-07T20:56:03;-1.40;99.90
67763;DHT22;54566;52.022;5.582;2024-01-07T20:58:31;-1.40;99.90
67763;DHT22;54566;52.022;5.582;2024-01-07T21:01:11;-1.40;99.90
67763;DHT22;54566;52.022;5.582;2024-01-07T21:03:44;-1.40;99.90
67763;DHT22;54566;52.022;5.582;2024-01-07T21:06:50;-1.50;99.90
67763;DHT22;54566;52.022;5.582;2024-01-07T21:09:41;-1.40;99.90
67763;DHT22;54566;52.022;5.582;2024-01-07T21:12:22;-1.50;99.90
67763;DHT22;54566;52.022;5.582;2024-01-07T21:15:00;-1.40;99.90
67763;DHT22;54566;52.022;5.582;2024-01-07T21:17:39;-1.40;99.90
67763;DHT22;54566;52.022;5.582;2024-01-07T21:20:10;-1.40;99.90
67763;DHT22;54566;52.022;5.582;2024-01-07T21:50:35;-1.40;99.90